Date,TemperatureHighF,TemperatureAvgF,TemperatureLowF,DewpointHighF,DewpointAvgF,DewpointLowF,HumidityHigh,HumidityAvg,HumidityLow,PressureMaxIn,PressureMinIn,WindSpeedMaxMPH,WindSpeedAvgMPH,GustSpeedMaxMPH,PrecipitationSumIn
2013-11-1,54,43,32,33,28,26,83,58,37,30.17,30.00,16,2,20,0.00
2013-11-2,57,47,41,34,30,24,64,53,35,30.08,29.48,29,7,32,0.00
2013-11-3,42,36,27,29,22,17,91,60,43,30.00,29.61,14,4,20,0.00
2013-11-4,36,27,21,27,22,18,91,84,68,30.19,30.00,12,1,13,0.03
2013-11-5,40,33,22,27,19,14,85,57,38,30.20,30.10,25,5,31,0.00
2013-11-6,46,40,33,28,24,21,69,56,42,30.32,30.10,15,2,21,0.00
2013-11-7,54,45,36,40,31,25,79,59,47,30.30,29.61,16,6,27,0.11
2013-11-8,46,43,40,30,27,22,61,53,48,30.09,29.70,10,3,22,0.00
2013-11-9,46,41,35,26,24,22,61,51,43,30.19,30.09,18,4,22,0.00
2013-11-10,42,34,27,29,26,24,87,74,56,30.34,30.10,8,2,14,0.02
2013-11-11,45,34,26,36,28,23,89,80,65,30.50,30.35,18,2,22,0.00
2013-11-12,58,50,40,35,32,27,78,51,32,30.43,30.14,17,6,25,0.00
2013-11-13,54,50,43,37,30,24,56,48,32,30.14,30.05,17,3,26,0.00
2013-11-14,50,44,38,27,25,23,57,49,40,30.07,29.68,10,2,20,0.00
2013-11-15,46,40,39,24,22,20,52,48,41,29.67,29.34,15,5,26,0.00
2013-11-16,44,34,19,28,23,15,85,64,41,29.62,29.20,20,6,26,0.00
2013-11-17,42,32,17,26,20,14,89,63,42,30.01,29.62,13,3,28,0.00
2013-11-18,54,45,38,22,20,16,49,37,26,29.93,29.66,21,6,30,0.00
2013-11-19,55,44,14,34,24,8,78,48,32,29.80,29.46,21,7,27,0.00
2013-11-20,14,8,1,9,2,-4,85,75,61,30.63,29.80,18,5,20,0.00
2013-11-21,24,17,2,11,7,-3,80,64,53,30.80,30.62,20,8,29,0.00
2013-11-22,34,28,23,11,9,7,57,45,36,30.75,30.65,20,11,30,0.00
2013-11-23,37,33,28,16,13,10,52,45,38,30.66,30.24,27,15,35,0.00
2013-11-24,46,38,31,24,17,15,68,44,32,30.30,30.10,27,13,32,0.00
2013-11-25,46,34,19,26,22,16,90,63,42,30.42,30.31,17,5,20,0.00
2013-11-26,49,43,36,26,24,23,61,49,40,30.41,30.05,20,8,27,0.00
2013-11-27,52,41,23,27,24,19,87,53,34,30.11,30.01,16,3,22,0.00
2013-11-28,48,39,21,26,23,17,91,56,39,30.13,30.03,25,8,33,0.00
2013-11-29,51,46,40,29,24,22,55,43,34,30.10,30.00,26,8,30,0.00
2013-11-30,52,45,40,32,30,29,65,57,47,30.11,30.05,11,2,19,0.00